Time;durP1;ratioP1;P1;durP2;ratioP2;P2;SDS_P1;SDS_P2;PMS_P1;PMS_P2;Temp;Humidity;BMP_temperature;BMP_pressure;BME280_temperature;BME280_humidity;BME280_pressure;Samples;Min_cycle;Max_cycle;Signal;HPM_P1;HPM_P2
2022/12/01 00:02:19;;;;;;;40.27;19.27;;;6.70;99.90;;;;;;5086933;28;20267;-64
2022/12/01 00:04:47;;;;;;;35.43;19.03;;;6.70;99.90;;;;;;5090072;28;20211;-65
2022/12/01 00:07:12;;;;;;;34.57;17.67;;;6.60;99.90;;;;;;5088166;28;20200;-63
2022/12/01 00:12:22;;;;;;;30.90;18.67;;;6.60;99.90;;;;;;5089062;28;20207;-63
2022/12/01 00:14:53;;;;;;;36.47;17.83;;;6.50;99.90;;;;;;5081829;28;20259;-63
2022/12/01 00:17:19;;;;;;;36.23;17.60;;;6.50;99.90;;;;;;5089865;28;20185;-63
2022/12/01 00:19:45;;;;;;;33.43;18.07;;;6.50;99.90;;;;;;5087673;28;20239;-63
2022/12/01 00:22:11;;;;;;;33.30;17.30;;;6.40;99.90;;;;;;5086802;28;20204;-63
2022/12/01 00:24:37;;;;;;;30.13;17.83;;;6.40;99.90;;;;;;5074341;28;20188;-63
2022/12/01 00:27:02;;;;;;;32.80;17.67;;;6.60;99.90;;;;;;5091929;28;20268;-63
2022/12/01 00:29:28;;;;;;;41.03;21.13;;;6.50;99.90;;;;;;5086819;28;20267;-63
2022/12/01 00:31:54;;;;;;;42.23;19.03;;;6.50;99.90;;;;;;5093624;28;20192;-63
2022/12/01 00:34:24;;;;;;;33.00;18.77;;;6.60;99.90;;;;;;5094090;28;20272;-63
2022/12/01 00:36:50;;;;;;;33.90;17.47;;;6.60;99.90;;;;;;5091049;28;20185;-62
2022/12/01 00:39:16;;;;;;;38.90;18.27;;;6.60;99.90;;;;;;5090701;28;20243;-62
2022/12/01 00:41:42;;;;;;;28.73;16.53;;;6.50;99.90;;;;;;5093436;28;20642;-62
2022/12/01 00:44:08;;;;;;;32.37;16.07;;;6.50;99.90;;;;;;5093381;28;20216;-62
2022/12/01 00:46:33;;;;;;;33.17;16.33;;;6.40;99.90;;;;;;5091884;28;20188;-62
2022/12/01 00:48:59;;;;;;;36.57;16.93;;;6.40;99.90;;;;;;5086213;28;20682;-62
2022/12/01 00:51:25;;;;;;;35.67;18.37;;;6.50;99.90;;;;;;5090057;28;20241;-62
2022/12/01 00:53:51;;;;;;;34.20;18.53;;;6.50;99.90;;;;;;5093944;28;20652;-62
2022/12/01 00:56:16;;;;;;;31.77;16.60;;;6.60;99.90;;;;;;5093430;28;20193;-63
2022/12/01 00:58:42;;;;;;;31.17;16.93;;;6.50;99.90;;;;;;5073130;28;20185;-63
2022/12/01 01:01:07;;;;;;;37.60;18.17;;;6.60;99.90;;;;;;5086577;28;20200;-62
2022/12/01 01:03:33;;;;;;;29.80;16.33;;;6.50;99.90;;;;;;5094540;28;20585;-62
2022/12/01 01:06:08;;;;;;;35.87;18.17;;;6.40;99.90;;;;;;5095294;28;20562;-62
2022/12/01 01:08:34;;;;;;;30.97;15.17;;;6.20;99.90;;;;;;5093969;28;20645;-62
2022/12/01 01:11:00;;;;;;;34.87;17.07;;;6.10;99.90;;;;;;5093405;28;20189;-62
2022/12/01 01:13:27;;;;;;;39.97;17.83;;;6.00;99.90;;;;;;5087237;28;20192;-62
2022/12/01 01:16:04;;;;;;;46.33;19.67;;;6.10;99.90;;;;;;5094557;28;20283;-63
2022/12/01 01:18:30;;;;;;;37.60;18.90;;;6.00;99.90;;;;;;5088551;28;20268;-62
2022/12/01 01:21:12;;;;;;;34.97;17.03;;;6.10;99.90;;;;;;5094285;28;20193;-62
2022/12/01 01:23:38;;;;;;;34.57;16.53;;;6.10;99.90;;;;;;5093084;28;20200;-62
2022/12/01 01:26:13;;;;;;;31.73;17.17;;;6.10;99.90;;;;;;5089155;28;20185;-63
2022/12/01 01:28:40;;;;;;;33.20;17.17;;;6.10;99.90;;;;;;5094462;28;20191;-62
2022/12/01 01:31:08;;;;;;;31.90;17.57;;;6.10;99.90;;;;;;5086377;28;20266;-62
2022/12/01 01:33:34;;;;;;;33.67;17.53;;;6.00;99.90;;;;;;5089341;28;20181;-62
2022/12/01 01:36:01;;;;;;;34.67;16.43;;;6.10;99.90;;;;;;5088304;28;20188;-62
2022/12/01 01:38:27;;;;;;;36.27;18.03;;;6.20;99.90;;;;;;5088682;28;20196;-62
2022/12/01 01:40:53;;;;;;;42.13;17.80;;;6.30;99.90;;;;;;5092677;28;20273;-62
2022/12/01 01:43:39;;;;;;;37.73;19.33;;;6.30;99.90;;;;;;5093675;28;20232;-63
2022/12/01 01:46:05;;;;;;;32.43;16.83;;;6.30;99.90;;;;;;5083518;28;20220;-62
2022/12/01 01:48:33;;;;;;;37.00;17.70;;;6.30;99.90;;;;;;5105324;28;20194;-64
2022/12/01 01:50:59;;;;;;;37.67;20.57;;;6.20;99.90;;;;;;5078682;28;20189;-62
2022/12/01 01:53:24;;;;;;;38.30;18.00;;;6.10;99.90;;;;;;5091422;28;20663;-62
2022/12/01 01:55:50;;;;;;;39.60;19.37;;;6.20;99.90;;;;;;5094481;28;20195;-62
2022/12/01 01:58:16;;;;;;;39.63;19.80;;;6.10;99.90;;;;;;5084270;28;20193;-62
2022/12/01 02:00:44;;;;;;;39.33;19.00;;;6.20;99.90;;;;;;5092670;28;20192;-63
2022/12/01 02:03:13;;;;;;;38.43;19.77;;;6.30;99.90;;;;;;5082946;28;20263;-62
2022/12/01 02:05:40;;;;;;;50.77;21.00;;;6.30;99.90;;;;;;5083121;28;20234;-62
2022/12/01 02:08:11;;;;;;;48.97;20.73;;;6.40;99.90;;;;;;5075924;28;20235;-63
2022/12/01 02:10:57;;;;;;;48.90;22.23;;;6.40;99.90;;;;;;5092993;28;20180;-63
2022/12/01 02:13:23;;;;;;;49.00;21.93;;;6.40;99.90;;;;;;5082436;28;20188;-62
2022/12/01 02:15:57;;;;;;;39.27;17.80;;;6.10;99.90;;;;;;5091802;28;20196;-63
2022/12/01 02:18:41;;;;;;;51.37;21.77;;;6.00;99.90;;;;;;5093444;28;20192;-62
2022/12/01 02:21:31;;;;;;;46.23;20.40;;;6.00;99.90;;;;;;5088655;28;20283;-63
2022/12/01 02:24:24;;;;;;;42.93;17.87;;;5.90;99.90;;;;;;5089422;28;20227;-63
2022/12/01 02:27:05;;;;;;;44.93;20.07;;;5.90;99.90;;;;;;5079441;28;20184;-63
2022/12/01 02:29:58;;;;;;;42.27;19.93;;;5.90;99.90;;;;;;5086914;28;20173;-63
2022/12/01 02:32:34;;;;;;;44.17;20.47;;;5.90;99.90;;;;;;5091828;28;20189;-63
2022/12/01 02:35:07;;;;;;;39.80;19.87;;;6.00;99.90;;;;;;5078687;28;20180;-63
2022/12/01 02:37:58;;;;;;;41.07;18.27;;;6.00;99.90;;;;;;5088904;28;20186;-63
2022/12/01 02:40:30;;;;;;;39.00;18.90;;;6.00;99.90;;;;;;5081770;28;20184;-63
2022/12/01 02:43:21;;;;;;;37.00;18.37;;;6.00;99.90;;;;;;5092407;28;20549;-63
2022/12/01 02:46:28;;;;;;;37.87;16.67;;;6.00;99.90;;;;;;5089898;28;20227;-63
2022/12/01 02:48:58;;;;;;;42.53;19.40;;;6.00;99.90;;;;;;5073938;28;20180;-63
2022/12/01 02:51:32;;;;;;;33.90;18.73;;;6.10;99.90;;;;;;5092089;28;20184;-63
2022/12/01 02:54:01;;;;;;;34.63;16.57;;;6.20;99.90;;;;;;5091303;28;20593;-63
2022/12/01 02:56:27;;;;;;;38.33;17.20;;;6.30;99.90;;;;;;5093236;28;20211;-63
2022/12/01 02:58:52;;;;;;;33.70;19.53;;;6.20;99.90;;;;;;5091309;28;20216;-63
2022/12/01 03:01:41;;;;;;;33.63;16.50;;;6.00;99.90;;;;;;5090352;28;20283;-63
2022/12/01 03:04:09;;;;;;;36.53;16.77;;;5.90;99.90;;;;;;5090297;28;20308;-63
2022/12/01 03:07:11;;;;;;;39.20;18.47;;;6.00;99.90;;;;;;5088952;28;20189;-63
2022/12/01 03:09:55;;;;;;;38.37;17.60;;;6.00;99.90;;;;;;5076456;28;20181;-63
2022/12/01 03:12:53;;;;;;;39.63;18.07;;;6.00;99.90;;;;;;5093264;28;20184;-63
2022/12/01 03:15:42;;;;;;;35.77;17.90;;;6.10;99.90;;;;;;5044337;28;20197;-63
2022/12/01 03:18:37;;;;;;;38.63;19.00;;;6.10;99.90;;;;;;5078878;28;20187;-63
2022/12/01 03:21:33;;;;;;;37.40;17.77;;;6.10;99.90;;;;;;5088224;28;20585;-63
2022/12/01 03:24:04;;;;;;;39.20;18.60;;;6.20;99.90;;;;;;5076451;28;20244;-63
2022/12/01 03:26:34;;;;;;;50.20;19.10;;;6.20;99.90;;;;;;5080769;28;20185;-63
2022/12/01 03:29:08;;;;;;;38.87;18.27;;;6.10;99.90;;;;;;5085968;28;20191;-63
2022/12/01 03:31:39;;;;;;;40.07;17.90;;;6.20;99.90;;;;;;5082604;28;20237;-63
2022/12/01 03:34:23;;;;;;;40.83;18.57;;;6.10;99.90;;;;;;5092243;28;20665;-63
2022/12/01 03:36:56;;;;;;;33.87;20.00;;;6.10;99.90;;;;;;5088046;28;20195;-63
2022/12/01 03:39:33;;;;;;;43.77;20.53;;;6.10;99.90;;;;;;5089167;28;20326;-62
2022/12/01 03:42:04;;;;;;;44.93;19.67;;;6.10;99.90;;;;;;5083642;28;20557;-62
2022/12/01 03:44:38;;;;;;;44.83;19.30;;;6.00;99.90;;;;;;5087173;28;20204;-64
2022/12/01 03:47:13;;;;;;;41.77;17.17;;;6.10;99.90;;;;;;5088176;28;20184;-63
2022/12/01 03:49:39;;;;;;;37.70;18.30;;;6.20;99.90;;;;;;5086702;28;20233;-63
2022/12/01 03:52:32;;;;;;;41.63;18.67;;;6.10;99.90;;;;;;5082762;28;20184;-64
2022/12/01 03:55:22;;;;;;;42.97;18.70;;;6.10;99.90;;;;;;5080412;28;20181;-63
2022/12/01 03:58:03;;;;;;;40.77;20.07;;;6.20;99.90;;;;;;5085898;28;20184;-64
2022/12/01 04:00:32;;;;;;;43.93;19.30;;;6.20;99.90;;;;;;5088982;28;20564;-62
2022/12/01 04:03:03;;;;;;;36.83;18.67;;;6.00;99.90;;;;;;5096013;28;20220;-62
2022/12/01 04:05:31;;;;;;;44.10;18.40;;;5.90;99.90;;;;;;5083714;28;20188;-62
2022/12/01 04:07:57;;;;;;;42.60;19.80;;;5.90;99.90;;;;;;5093737;28;20195;-62
2022/12/01 04:10:23;;;;;;;41.47;18.00;;;5.90;99.90;;;;;;5095918;28;20207;-62
2022/12/01 04:12:49;;;;;;;35.03;16.50;;;6.00;99.90;;;;;;5095603;28;20238;-62
2022/12/01 04:15:15;;;;;;;30.13;16.77;;;6.10;99.90;;;;;;5077478;28;20189;-63
2022/12/01 04:17:43;;;;;;;31.10;17.27;;;6.20;99.90;;;;;;5094319;28;20271;-62
2022/12/01 04:20:12;;;;;;;35.80;16.73;;;6.20;99.90;;;;;;5082256;28;20196;-63
2022/12/01 04:22:39;;;;;;;29.30;15.07;;;6.20;99.90;;;;;;5090291;28;20197;-61
2022/12/01 04:25:06;;;;;;;38.77;15.17;;;6.20;99.90;;;;;;5094890;28;20185;-61
2022/12/01 04:27:32;;;;;;;44.70;16.13;;;6.20;99.90;;;;;;5091445;28;20593;-63
2022/12/01 04:29:58;;;;;;;35.10;16.50;;;6.20;99.90;;;;;;5088876;28;20185;-63
2022/12/01 04:32:24;;;;;;;34.57;15.97;;;6.10;99.90;;;;;;5080106;28;20674;-63
2022/12/01 04:34:49;;;;;;;33.33;15.67;;;6.10;99.90;;;;;;5082627;28;20205;-63
2022/12/01 04:37:15;;;;;;;29.00;14.33;;;6.20;99.90;;;;;;5089778;28;20189;-63
2022/12/01 04:39:41;;;;;;;35.73;16.20;;;6.30;99.90;;;;;;5088413;28;20644;-63
2022/12/01 04:42:07;;;;;;;34.33;16.27;;;6.30;99.90;;;;;;5073328;28;20209;-63
2022/12/01 04:44:33;;;;;;;33.73;14.73;;;6.30;99.90;;;;;;5094995;28;20273;-63
2022/12/01 04:46:59;;;;;;;35.70;15.30;;;6.20;99.90;;;;;;5082414;28;20197;-63
2022/12/01 04:49:25;;;;;;;40.50;15.37;;;6.20;99.90;;;;;;5093866;28;20662;-63
2022/12/01 04:51:51;;;;;;;33.47;16.23;;;6.10;99.90;;;;;;5073746;28;20186;-64
2022/12/01 04:54:17;;;;;;;37.93;16.03;;;6.10;99.90;;;;;;5095594;28;20199;-63
2022/12/01 04:56:43;;;;;;;31.50;15.63;;;6.20;99.90;;;;;;5095244;28;20192;-63
2022/12/01 04:59:09;;;;;;;34.43;16.40;;;6.30;99.90;;;;;;5095407;28;20595;-63
2022/12/01 05:01:35;;;;;;;39.77;15.33;;;6.40;99.90;;;;;;5094595;28;20234;-63
2022/12/01 05:04:01;;;;;;;29.63;14.60;;;6.30;99.90;;;;;;5082660;28;20209;-63
2022/12/01 05:06:27;;;;;;;31.03;14.40;;;6.30;99.90;;;;;;5093567;28;20222;-63
2022/12/01 05:08:55;;;;;;;37.10;16.97;;;6.20;99.90;;;;;;5093177;28;20184;-63
2022/12/01 05:11:22;;;;;;;29.13;15.83;;;6.30;99.90;;;;;;5094027;28;20234;-63
2022/12/01 05:13:48;;;;;;;33.50;16.57;;;6.40;99.90;;;;;;5088940;28;20189;-63
2022/12/01 05:16:15;;;;;;;33.47;14.30;;;6.30;99.90;;;;;;5096310;28;20650;-63
2022/12/01 05:18:41;;;;;;;32.13;14.40;;;6.20;99.90;;;;;;5094745;28;20180;-62
2022/12/01 05:21:09;;;;;;;41.63;16.63;;;6.50;99.90;;;;;;5093942;28;20536;-63
2022/12/01 05:23:36;;;;;;;33.63;16.63;;;6.50;99.90;;;;;;5093591;28;20262;-64
2022/12/01 05:26:03;;;;;;;32.50;15.57;;;6.50;99.90;;;;;;5094396;28;20196;-62
2022/12/01 05:28:29;;;;;;;32.87;16.03;;;6.40;99.90;;;;;;5072186;28;20195;-64
2022/12/01 05:30:55;;;;;;;43.43;15.40;;;6.40;99.90;;;;;;5093987;28;20276;-62
2022/12/01 05:33:22;;;;;;;31.27;14.43;;;6.40;99.90;;;;;;5092090;28;20181;-62
2022/12/01 05:35:48;;;;;;;34.50;14.80;;;6.50;99.90;;;;;;5094316;28;20176;-62
2022/12/01 05:38:14;;;;;;;37.20;16.00;;;6.40;99.90;;;;;;5087336;28;20185;-62
2022/12/01 05:40:40;;;;;;;34.47;17.23;;;6.40;99.90;;;;;;5094043;28;20188;-62
2022/12/01 05:43:06;;;;;;;35.17;15.33;;;6.50;99.90;;;;;;5091515;28;20240;-62
2022/12/01 05:45:33;;;;;;;40.20;16.90;;;6.60;99.90;;;;;;5092866;28;20201;-62
2022/12/01 05:47:59;;;;;;;37.60;16.80;;;6.60;99.90;;;;;;5083831;28;20200;-63
2022/12/01 05:50:27;;;;;;;38.47;17.03;;;6.70;99.90;;;;;;5090239;28;20272;-63
2022/12/01 05:52:53;;;;;;;34.00;15.57;;;6.60;99.90;;;;;;5094156;28;20191;-63
2022/12/01 05:55:19;;;;;;;44.87;18.93;;;6.60;99.90;;;;;;5093110;28;20189;-62
2022/12/01 05:57:45;;;;;;;43.67;18.03;;;6.50;99.90;;;;;;5081022;28;20195;-62
2022/12/01 06:00:12;;;;;;;40.70;17.43;;;6.60;99.90;;;;;;5086960;28;20213;-62
2022/12/01 06:02:39;;;;;;;33.77;17.77;;;6.70;99.90;;;;;;5085246;28;20181;-63
2022/12/01 06:05:05;;;;;;;40.87;16.50;;;6.60;99.90;;;;;;5089341;28;20189;-63
2022/12/01 06:07:33;;;;;;;33.43;15.33;;;6.60;99.90;;;;;;5088691;28;20242;-63
2022/12/01 06:09:59;;;;;;;34.87;16.30;;;6.60;99.90;;;;;;5093818;28;20180;-63
2022/12/01 06:12:25;;;;;;;37.37;16.27;;;6.80;99.90;;;;;;5088488;28;20268;-64
2022/12/01 06:14:50;;;;;;;33.70;17.03;;;6.80;99.90;;;;;;5090129;28;20184;-63
2022/12/01 06:17:16;;;;;;;37.67;17.37;;;6.70;99.90;;;;;;5072542;28;20193;-62
2022/12/01 06:19:42;;;;;;;42.80;16.87;;;6.70;99.90;;;;;;5087061;28;20188;-62
2022/12/01 06:22:08;;;;;;;48.23;17.77;;;6.70;99.90;;;;;;5092833;28;20230;-63
2022/12/01 06:24:34;;;;;;;38.30;17.13;;;6.50;99.90;;;;;;5091232;28;20204;-63
2022/12/01 06:27:00;;;;;;;41.27;17.83;;;6.50;99.90;;;;;;5092436;28;20682;-63
2022/12/01 06:29:25;;;;;;;34.73;18.07;;;6.50;99.90;;;;;;5092326;28;20253;-63
2022/12/01 06:31:51;;;;;;;39.87;19.00;;;6.60;99.90;;;;;;5091778;28;20188;-63
2022/12/01 06:34:17;;;;;;;43.73;17.63;;;6.60;99.90;;;;;;5092992;28;20203;-63
2022/12/01 06:36:42;;;;;;;32.17;16.97;;;6.50;99.90;;;;;;5091704;28;20184;-63
2022/12/01 06:39:08;;;;;;;34.30;15.13;;;6.50;99.90;;;;;;5083609;28;20313;-64
2022/12/01 06:41:35;;;;;;;42.20;17.97;;;6.60;99.90;;;;;;5100673;28;20190;-63
2022/12/01 06:44:01;;;;;;;41.63;19.03;;;6.50;99.90;;;;;;5096862;28;20212;-64
2022/12/01 06:46:26;;;;;;;34.17;15.80;;;6.70;99.90;;;;;;5090800;28;20699;-63
2022/12/01 06:48:52;;;;;;;39.67;16.30;;;6.80;99.90;;;;;;5092640;28;20185;-63
2022/12/01 06:51:18;;;;;;;34.73;16.13;;;6.60;99.90;;;;;;5083570;28;20220;-63
2022/12/01 06:53:43;;;;;;;34.40;16.50;;;6.60;99.90;;;;;;5058313;28;20279;-63
2022/12/01 06:56:09;;;;;;;41.67;19.63;;;6.60;99.90;;;;;;5082254;28;20188;-64
2022/12/01 06:58:35;;;;;;;37.67;14.33;;;6.70;99.90;;;;;;5091967;28;20700;-64
2022/12/01 07:01:08;;;;;;;39.80;17.73;;;6.60;99.90;;;;;;5092040;28;20263;-63
2022/12/01 07:03:34;;;;;;;45.43;17.80;;;6.40;99.90;;;;;;5083743;28;20609;-63
2022/12/01 07:06:01;;;;;;;44.27;17.13;;;6.40;99.90;;;;;;5090936;28;20180;-65
2022/12/01 07:08:28;;;;;;;36.80;17.33;;;6.50;99.90;;;;;;5092837;28;20195;-63
2022/12/01 07:11:13;;;;;;;38.97;17.03;;;6.50;99.90;;;;;;5079863;28;20181;-63
2022/12/01 07:13:39;;;;;;;34.70;15.43;;;6.70;99.90;;;;;;5085317;28;20202;-65
2022/12/01 07:16:07;;;;;;;37.37;16.27;;;6.80;99.90;;;;;;5092323;28;20196;-64
2022/12/01 07:18:33;;;;;;;38.00;16.23;;;6.80;99.90;;;;;;5092278;28;20246;-64
2022/12/01 07:21:05;;;;;;;38.37;17.13;;;6.50;99.90;;;;;;5088160;28;20270;-64
2022/12/01 07:23:32;;;;;;;25.77;14.73;;;6.40;99.90;;;;;;5087751;28;20291;-64
2022/12/01 07:26:03;;;;;;;39.17;15.63;;;6.30;99.90;;;;;;5061411;28;20188;-64
2022/12/01 07:28:29;;;;;;;35.10;16.07;;;6.30;99.90;;;;;;5082484;28;20181;-65
2022/12/01 07:31:01;;;;;;;33.03;16.33;;;6.30;99.90;;;;;;5084519;28;20231;-64
2022/12/01 07:33:27;;;;;;;35.83;15.63;;;6.20;99.90;;;;;;5081100;28;20184;-65
2022/12/01 07:35:53;;;;;;;37.70;16.37;;;6.30;99.90;;;;;;5083586;28;21661;-64
2022/12/01 07:38:19;;;;;;;32.40;16.40;;;6.40;99.90;;;;;;5084128;28;20181;-63
2022/12/01 07:40:44;;;;;;;38.60;15.47;;;6.40;99.90;;;;;;5092487;28;20196;-64
2022/12/01 07:43:10;;;;;;;28.60;14.53;;;6.50;99.90;;;;;;5084981;28;20216;-63
2022/12/01 07:45:35;;;;;;;35.70;16.77;;;6.50;99.90;;;;;;5074156;28;20183;-64
2022/12/01 07:48:01;;;;;;;34.10;16.43;;;6.40;99.90;;;;;;5095346;28;20182;-64
2022/12/01 07:50:27;;;;;;;29.40;16.03;;;6.40;99.90;;;;;;5098257;28;20241;-63
2022/12/01 07:52:52;;;;;;;31.83;15.47;;;6.40;99.90;;;;;;5080678;28;20196;-64
2022/12/01 07:55:19;;;;;;;37.80;17.90;;;6.30;99.90;;;;;;5072748;28;20647;-64
2022/12/01 07:57:45;;;;;;;34.60;17.13;;;6.30;99.90;;;;;;5085635;28;20184;-63
2022/12/01 08:00:11;;;;;;;41.10;17.20;;;6.40;99.90;;;;;;5086956;28;20238;-64
2022/12/01 08:02:37;;;;;;;32.27;15.50;;;6.50;99.90;;;;;;5082391;28;20188;-64
2022/12/01 08:05:03;;;;;;;31.83;15.43;;;6.70;99.90;;;;;;5087502;28;20264;-63
2022/12/01 08:07:29;;;;;;;29.60;15.67;;;6.70;99.90;;;;;;5085896;28;20218;-63
2022/12/01 08:09:54;;;;;;;35.33;17.00;;;6.50;99.90;;;;;;5085411;28;20658;-64
2022/12/01 08:12:20;;;;;;;36.60;16.23;;;6.50;99.90;;;;;;5084783;28;20184;-64
2022/12/01 08:14:45;;;;;;;32.33;16.00;;;6.60;99.90;;;;;;5079884;28;20196;-64
2022/12/01 08:17:11;;;;;;;34.80;15.70;;;6.60;99.90;;;;;;5086299;28;20585;-63
2022/12/01 08:19:37;;;;;;;28.90;15.80;;;6.60;99.90;;;;;;5081584;28;20274;-64
2022/12/01 08:22:02;;;;;;;34.83;16.00;;;6.60;99.90;;;;;;5064679;28;20201;-65
2022/12/01 08:24:28;;;;;;;32.10;16.77;;;6.60;99.90;;;;;;5081792;28;20686;-64
2022/12/01 08:26:54;;;;;;;32.77;16.37;;;6.50;99.90;;;;;;5078222;28;20188;-64
2022/12/01 08:29:19;;;;;;;36.90;17.97;;;6.60;99.90;;;;;;5083848;28;20685;-64
2022/12/01 08:31:45;;;;;;;36.53;17.20;;;6.70;99.90;;;;;;5083541;28;20666;-64
2022/12/01 08:34:10;;;;;;;36.07;16.80;;;6.80;99.90;;;;;;5087161;28;20189;-64
2022/12/01 08:36:36;;;;;;;45.67;18.57;;;6.80;99.90;;;;;;5076303;28;20608;-64
2022/12/01 08:39:02;;;;;;;43.67;19.23;;;6.70;99.90;;;;;;5081527;28;20214;-63
2022/12/01 08:41:30;;;;;;;33.57;15.93;;;6.50;99.90;;;;;;5079557;28;20633;-64
2022/12/01 08:43:58;;;;;;;45.87;18.50;;;6.40;99.90;;;;;;5081019;28;20598;-64
2022/12/01 08:46:24;;;;;;;36.97;18.13;;;6.50;99.90;;;;;;5092782;28;20552;-64
2022/12/01 08:48:49;;;;;;;37.53;17.60;;;6.50;99.90;;;;;;5087517;28;20280;-64
2022/12/01 08:51:17;;;;;;;35.00;18.73;;;6.50;99.90;;;;;;5093620;28;20306;-64
2022/12/01 08:53:47;;;;;;;38.23;18.63;;;6.80;99.90;;;;;;5089810;28;20650;-64
2022/12/01 08:56:17;;;;;;;34.87;18.00;;;6.80;99.90;;;;;;5093458;28;20224;-64
2022/12/01 08:58:43;;;;;;;38.40;18.67;;;6.80;99.90;;;;;;5094161;28;20180;-64
2022/12/01 09:01:12;;;;;;;36.53;17.33;;;6.70;99.90;;;;;;5094219;28;20687;-65
2022/12/01 09:03:38;;;;;;;30.87;15.90;;;6.90;99.90;;;;;;5094960;28;20219;-64
2022/12/01 09:06:07;;;;;;;35.63;18.70;;;6.80;99.90;;;;;;5072234;28;20180;-64
2022/12/01 09:08:34;;;;;;;38.67;17.60;;;6.80;99.90;;;;;;5093765;28;20347;-64
2022/12/01 09:11:05;;;;;;;37.57;18.17;;;6.80;99.90;;;;;;5093581;28;20566;-62
2022/12/01 09:13:33;;;;;;;34.50;16.27;;;6.70;99.90;;;;;;5094852;28;20187;-63
2022/12/01 09:16:02;;;;;;;36.47;19.40;;;6.60;99.90;;;;;;5088833;28;20262;-62
2022/12/01 09:18:28;;;;;;;34.77;18.70;;;6.80;99.90;;;;;;5093359;28;20655;-63
2022/12/01 09:20:55;;;;;;;34.83;16.30;;;6.80;99.90;;;;;;5091425;28;20256;-63
2022/12/01 09:23:21;;;;;;;46.67;19.27;;;6.70;99.90;;;;;;5092862;28;20216;-63
2022/12/01 09:25:48;;;;;;;32.80;14.57;;;6.70;99.90;;;;;;5087199;28;20181;-63
2022/12/01 09:28:14;;;;;;;31.33;16.80;;;6.70;99.90;;;;;;5094112;28;20257;-63
2022/12/01 09:30:39;;;;;;;38.27;19.50;;;6.70;99.90;;;;;;5093415;28;20184;-62
2022/12/01 09:33:05;;;;;;;34.47;18.30;;;6.70;99.90;;;;;;5092028;28;20185;-63
2022/12/01 09:35:31;;;;;;;35.67;17.70;;;6.90;99.90;;;;;;5091890;28;20259;-63
2022/12/01 09:37:57;;;;;;;43.57;19.80;;;6.90;99.90;;;;;;5086870;28;20230;-63
2022/12/01 09:40:50;;;;;;;40.77;18.10;;;6.80;99.90;;;;;;5092116;28;20187;-63
2022/12/01 09:43:20;;;;;;;41.23;18.57;;;7.00;99.90;;;;;;5083337;28;20220;-63
2022/12/01 09:45:51;;;;;;;38.50;18.80;;;6.90;99.90;;;;;;5093717;28;20181;-62
2022/12/01 09:48:45;;;;;;;37.50;16.70;;;6.90;99.90;;;;;;5091838;28;20263;-64
2022/12/01 09:51:21;;;;;;;38.30;18.50;;;7.10;99.90;;;;;;5090269;28;20212;-63
2022/12/01 09:53:55;;;;;;;36.27;18.70;;;7.10;99.90;;;;;;5093461;28;20188;-63
2022/12/01 09:56:27;;;;;;;40.17;19.10;;;7.10;99.90;;;;;;5088780;28;20567;-64
2022/12/01 09:58:59;;;;;;;39.10;18.33;;;7.20;99.90;;;;;;5093260;28;20185;-63
2022/12/01 10:01:35;;;;;;;40.20;19.37;;;7.10;99.90;;;;;;5094681;28;20263;-63
2022/12/01 10:04:21;;;;;;;41.57;18.23;;;7.10;99.90;;;;;;5083282;28;20556;-62
2022/12/01 10:07:17;;;;;;;33.03;18.83;;;7.10;99.90;;;;;;5086126;28;20208;-63
2022/12/01 10:09:57;;;;;;;34.00;15.53;;;7.00;99.90;;;;;;5077598;28;20228;-63
2022/12/01 10:12:27;;;;;;;42.03;21.63;;;6.90;99.90;;;;;;5079898;28;20200;-63
2022/12/01 10:15:13;;;;;;;47.77;20.13;;;6.90;99.90;;;;;;5091874;28;20260;-62
2022/12/01 10:18:12;;;;;;;39.67;17.47;;;7.00;99.90;;;;;;5093250;28;20283;-63
2022/12/01 10:20:47;;;;;;;43.57;17.33;;;7.20;99.90;;;;;;5087407;28;20631;-63
2022/12/01 10:23:50;;;;;;;41.50;18.97;;;7.30;99.90;;;;;;5082579;28;20212;-64
2022/12/01 10:26:46;;;;;;;29.53;16.57;;;7.40;99.90;;;;;;5093078;28;20180;-63
2022/12/01 10:29:33;;;;;;;39.43;18.43;;;7.40;99.90;;;;;;5093515;28;20241;-64
2022/12/01 10:32:19;;;;;;;35.63;18.77;;;7.20;99.90;;;;;;5081740;28;20871;-64
2022/12/01 10:34:46;;;;;;;36.93;17.43;;;7.10;99.90;;;;;;5092705;28;20184;-63
2022/12/01 10:37:19;;;;;;;43.00;19.40;;;7.20;99.90;;;;;;5089539;28;20682;-63
2022/12/01 10:39:47;;;;;;;38.80;18.40;;;7.20;99.90;;;;;;5085817;28;20185;-64
2022/12/01 10:42:15;;;;;;;36.20;17.37;;;7.20;99.90;;;;;;5091966;28;20519;-63
2022/12/01 10:44:41;;;;;;;37.80;17.57;;;7.30;99.90;;;;;;5093242;28;20303;-65
2022/12/01 10:47:27;;;;;;;36.77;18.90;;;7.20;99.90;;;;;;5083769;28;20181;-64
2022/12/01 10:49:53;;;;;;;38.73;17.43;;;7.10;99.90;;;;;;5093352;28;20181;-63
2022/12/01 10:52:35;;;;;;;37.53;17.90;;;7.20;99.90;;;;;;5082460;28;20188;-64
2022/12/01 10:55:04;;;;;;;40.83;18.27;;;7.40;99.90;;;;;;5091345;28;20646;-63
2022/12/01 10:57:30;;;;;;;44.07;18.50;;;7.60;99.90;;;;;;5091216;28;20177;-64
2022/12/01 11:00:03;;;;;;;36.03;18.93;;;7.50;99.90;;;;;;5084614;28;20181;-64
2022/12/01 11:02:30;;;;;;;34.97;16.83;;;7.70;99.90;;;;;;5087391;28;20215;-66
2022/12/01 11:04:58;;;;;;;38.67;18.87;;;7.60;99.90;;;;;;5091899;28;20303;-64
2022/12/01 11:07:31;;;;;;;46.80;21.97;;;7.60;99.90;;;;;;5090162;28;20188;-63
2022/12/01 11:10:02;;;;;;;40.40;19.53;;;7.70;99.90;;;;;;5085328;28;20189;-65
2022/12/01 11:12:28;;;;;;;34.67;17.50;;;7.80;99.90;;;;;;5082489;28;20582;-65
2022/12/01 11:14:55;;;;;;;37.43;18.67;;;7.60;99.90;;;;;;5087830;28;20211;-65
2022/12/01 11:17:37;;;;;;;38.53;17.60;;;7.70;99.90;;;;;;5086577;28;20191;-65
2022/12/01 11:20:37;;;;;;;35.10;16.70;;;7.80;99.90;;;;;;5090044;28;20204;-64
2022/12/01 11:23:25;;;;;;;31.57;15.60;;;8.20;99.90;;;;;;5084659;28;20220;-65
2022/12/01 11:26:14;;;;;;;28.50;17.10;;;7.80;99.90;;;;;;5083715;28;20675;-64
2022/12/01 11:28:50;;;;;;;43.00;16.23;;;7.60;99.90;;;;;;5085507;28;20251;-63
2022/12/01 11:31:16;;;;;;;37.90;17.17;;;7.50;99.90;;;;;;5091199;28;20623;-63
2022/12/01 11:33:49;;;;;;;34.70;17.03;;;7.60;99.90;;;;;;5087564;28;20271;-64
2022/12/01 11:36:20;;;;;;;34.47;16.67;;;7.80;99.90;;;;;;5090703;28;20251;-63
2022/12/01 11:38:46;;;;;;;40.57;19.33;;;7.70;99.90;;;;;;5088171;28;20177;-63
2022/12/01 11:41:33;;;;;;;36.53;17.37;;;7.70;99.90;;;;;;5077859;28;20182;-64
2022/12/01 11:44:01;;;;;;;37.03;15.73;;;7.60;99.90;;;;;;5089831;28;20299;-64
2022/12/01 11:46:34;;;;;;;38.97;18.37;;;7.60;99.90;;;;;;5090814;28;20192;-64
2022/12/01 11:49:00;;;;;;;38.13;17.00;;;7.60;99.90;;;;;;5090127;28;20195;-64
2022/12/01 11:51:31;;;;;;;37.60;16.67;;;7.50;99.90;;;;;;5090598;28;20587;-63
2022/12/01 11:54:12;;;;;;;34.87;16.27;;;7.50;99.90;;;;;;5090095;28;20204;-64
2022/12/01 11:56:38;;;;;;;33.77;16.57;;;7.40;99.90;;;;;;5090541;28;20272;-63
2022/12/01 11:59:13;;;;;;;43.13;17.50;;;7.40;99.90;;;;;;5089223;28;20266;-65
2022/12/01 12:02:05;;;;;;;33.70;17.40;;;7.50;99.90;;;;;;5091440;28;20206;-63
2022/12/01 12:04:50;;;;;;;37.00;17.40;;;7.60;99.90;;;;;;5076879;28;20671;-63
2022/12/01 12:07:34;;;;;;;33.87;15.90;;;7.60;99.90;;;;;;5073409;28;20227;-64
2022/12/01 12:10:26;;;;;;;30.73;14.43;;;7.70;99.90;;;;;;5077023;28;20180;-63
2022/12/01 12:13:19;;;;;;;35.83;16.03;;;7.80;99.90;;;;;;5091470;28;20191;-63
2022/12/01 12:16:05;;;;;;;31.43;14.97;;;7.80;99.90;;;;;;5082217;28;21023;-63
2022/12/01 12:18:38;;;;;;;37.20;14.40;;;7.70;99.90;;;;;;5075420;28;20189;-63
2022/12/01 12:21:07;;;;;;;33.43;14.90;;;7.80;99.90;;;;;;5087321;28;20196;-66
2022/12/01 12:23:57;;;;;;;31.27;15.97;;;7.80;99.90;;;;;;5095609;28;20212;-65
2022/12/01 12:26:29;;;;;;;27.73;15.83;;;7.70;99.90;;;;;;5083316;28;20227;-65
2022/12/01 12:29:17;;;;;;;29.43;15.93;;;7.60;99.90;;;;;;5080051;28;20177;-63
2022/12/01 12:31:54;;;;;;;34.77;17.07;;;7.80;99.90;;;;;;5093470;28;20238;-65
2022/12/01 12:35:01;;;;;;;34.03;15.53;;;8.00;99.90;;;;;;5084251;28;20710;-67
2022/12/01 12:37:53;;;;;;;32.10;14.90;;;8.00;99.90;;;;;;5080956;28;20188;-65
2022/12/01 12:40:31;;;;;;;29.07;15.50;;;8.00;99.90;;;;;;5094715;28;20196;-65
2022/12/01 12:43:18;;;;;;;32.17;15.83;;;7.90;99.90;;;;;;5083144;28;20180;-65
2022/12/01 12:45:56;;;;;;;32.10;15.73;;;7.90;99.90;;;;;;5091282;28;20249;-64
2022/12/01 12:48:34;;;;;;;36.83;15.93;;;7.90;99.90;;;;;;5095874;28;20233;-64
2022/12/01 12:51:09;;;;;;;31.80;15.60;;;8.10;99.90;;;;;;5094811;28;20287;-64
2022/12/01 12:53:44;;;;;;;34.30;17.03;;;8.20;99.90;;;;;;5087892;28;20255;-64
2022/12/01 12:56:13;;;;;;;36.33;16.43;;;8.10;99.90;;;;;;5095591;28;20191;-65
2022/12/01 12:59:02;;;;;;;32.93;17.53;;;8.00;99.90;;;;;;5094932;28;20693;-65
2022/12/01 13:01:35;;;;;;;34.10;15.37;;;7.90;99.90;;;;;;5076844;28;20189;-64